Time;durP1;ratioP1;P1;durP2;ratioP2;P2;SDS_P1;SDS_P2;PMS_P1;PMS_P2;Temp;Humidity;BMP_temperature;BMP_pressure;BME280_temperature;BME280_humidity;BME280_pressure;Samples;Min_cycle;Max_cycle;Signal;HPM_P1;HPM_P2
2022/03/20 00:01:30;;;;;;;23.03;16.13;;;3.90;47.30;;;;;;5012753;28;20254;-81
2022/03/20 00:03:56;;;;;;;24.63;16.47;;;3.80;47.40;;;;;;5009432;28;20263;-82
2022/03/20 00:06:23;;;;;;;23.53;16.37;;;3.90;48.00;;;;;;5009517;28;20234;-82
2022/03/20 00:08:52;;;;;;;23.97;16.93;;;3.80;47.50;;;;;;5012974;28;20765;-82
2022/03/20 00:11:19;;;;;;;23.87;16.30;;;3.80;47.60;;;;;;5010788;28;20251;-82
2022/03/20 00:13:46;;;;;;;22.27;16.07;;;3.70;47.40;;;;;;5028308;28;20179;-82
2022/03/20 00:16:15;;;;;;;22.60;15.03;;;3.60;49.80;;;;;;5029681;28;20260;-82
2022/03/20 00:18:42;;;;;;;24.10;17.10;;;3.70;49.20;;;;;;5020165;28;20290;-81
2022/03/20 00:21:11;;;;;;;22.83;16.43;;;3.60;48.60;;;;;;5026525;28;20242;-82
2022/03/20 00:23:38;;;;;;;23.00;15.03;;;3.60;48.80;;;;;;5020596;28;20322;-82
2022/03/20 00:26:07;;;;;;;23.60;16.40;;;3.60;48.50;;;;;;5006644;28;20191;-82
2022/03/20 00:28:34;;;;;;;22.13;15.87;;;3.60;49.00;;;;;;5010899;28;20220;-81
2022/03/20 00:31:00;;;;;;;23.77;16.10;;;3.50;49.20;;;;;;5005517;28;20200;-81
2022/03/20 00:33:29;;;;;;;22.73;15.43;;;3.60;49.20;;;;;;5009703;28;20200;-82
2022/03/20 00:35:56;;;;;;;22.37;16.10;;;3.50;49.70;;;;;;5015773;28;20241;-82
2022/03/20 00:38:23;;;;;;;21.77;16.53;;;3.50;50.80;;;;;;5011625;28;20337;-82
2022/03/20 00:40:50;;;;;;;22.07;15.90;;;3.50;49.80;;;;;;5010656;28;20203;-82
2022/03/20 00:43:18;;;;;;;22.50;15.67;;;3.40;50.50;;;;;;5015037;28;20201;-82
2022/03/20 00:45:45;;;;;;;22.77;15.70;;;3.30;50.80;;;;;;5023632;28;20278;-82
2022/03/20 00:48:12;;;;;;;22.47;15.73;;;3.40;52.20;;;;;;5010632;28;20258;-81
2022/03/20 00:50:40;;;;;;;22.93;16.07;;;3.40;51.00;;;;;;5012995;28;20207;-82
2022/03/20 00:53:07;;;;;;;23.07;15.70;;;3.40;51.00;;;;;;5003727;28;20218;-81
2022/03/20 00:55:34;;;;;;;23.93;15.67;;;3.40;52.50;;;;;;5011338;28;20293;-82
2022/03/20 00:58:01;;;;;;;22.80;16.43;;;3.30;53.00;;;;;;5007011;28;20321;-82
2022/03/20 01:00:28;;;;;;;22.07;15.90;;;3.30;52.80;;;;;;5011337;28;20195;-81
2022/03/20 01:02:55;;;;;;;26.73;16.40;;;3.30;52.80;;;;;;5007563;28;20701;-81
2022/03/20 01:05:22;;;;;;;22.10;15.37;;;3.40;52.60;;;;;;5012965;28;20199;-82
2022/03/20 01:07:50;;;;;;;23.17;16.27;;;3.30;52.90;;;;;;5008475;28;20318;-82
2022/03/20 01:10:17;;;;;;;21.37;15.10;;;3.30;52.70;;;;;;5011209;28;20524;-82
2022/03/20 01:12:44;;;;;;;22.77;14.97;;;3.30;54.10;;;;;;5015354;28;20226;-81
2022/03/20 01:15:13;;;;;;;22.93;15.13;;;3.40;55.60;;;;;;5014734;28;20578;-82
2022/03/20 01:17:40;;;;;;;23.80;16.10;;;3.40;54.70;;;;;;5008393;28;20223;-82
2022/03/20 01:20:09;;;;;;;22.97;15.90;;;3.30;53.50;;;;;;5016573;28;20222;-82
2022/03/20 01:22:36;;;;;;;22.47;15.77;;;3.10;55.30;;;;;;5012336;28;20285;-82
2022/03/20 01:25:06;;;;;;;23.03;15.07;;;3.10;55.40;;;;;;5012555;28;20207;-82
2022/03/20 01:27:33;;;;;;;21.80;15.90;;;3.10;55.40;;;;;;5012773;28;20244;-82
2022/03/20 01:30:00;;;;;;;25.83;16.90;;;3.10;55.10;;;;;;5014479;28;20204;-82
2022/03/20 01:32:28;;;;;;;27.07;16.27;;;3.10;55.70;;;;;;5012844;28;20291;-82
2022/03/20 01:34:55;;;;;;;21.97;15.83;;;3.10;54.50;;;;;;5011710;28;20235;-82
2022/03/20 01:37:22;;;;;;;24.77;15.07;;;3.00;55.30;;;;;;5015170;28;20678;-81
2022/03/20 01:39:49;;;;;;;41.80;28.37;;;3.10;55.30;;;;;;5005204;28;20301;-82
2022/03/20 01:42:17;;;;;;;25.70;16.77;;;3.10;60.40;;;;;;5009262;28;20287;-81
2022/03/20 01:44:44;;;;;;;44.43;29.43;;;3.20;61.00;;;;;;5005842;28;20204;-82
2022/03/20 01:47:11;;;;;;;46.77;31.03;;;3.40;68.10;;;;;;5009939;28;20243;-82
2022/03/20 01:49:37;;;;;;;67.67;43.53;;;3.40;68.90;;;;;;5009841;28;20212;-82
2022/03/20 01:52:11;;;;;;;66.30;43.50;;;3.50;74.60;;;;;;5020682;28;20376;-81
2022/03/20 01:54:38;;;;;;;48.40;31.93;;;3.60;75.10;;;;;;5010618;28;20267;-81
2022/03/20 01:57:07;;;;;;;33.60;23.17;;;3.60;68.30;;;;;;5009403;28;20589;-81
2022/03/20 01:59:35;;;;;;;39.00;26.43;;;3.50;63.90;;;;;;5007224;28;20224;-82
2022/03/20 02:02:03;;;;;;;39.00;26.73;;;3.40;68.10;;;;;;5004422;28;20225;-82
2022/03/20 02:04:30;;;;;;;36.97;23.93;;;3.40;68.10;;;;;;5009677;28;20339;-82
2022/03/20 02:06:57;;;;;;;37.70;26.33;;;3.40;68.10;;;;;;5009598;28;20227;-81
2022/03/20 02:09:24;;;;;;;39.40;25.83;;;3.40;68.10;;;;;;5012431;28;20225;-82
2022/03/20 02:11:52;;;;;;;34.23;22.77;;;3.30;68.00;;;;;;5016127;28;20227;-82
2022/03/20 02:14:19;;;;;;;36.10;23.90;;;3.20;67.30;;;;;;5006499;28;20320;-82
2022/03/20 02:16:48;;;;;;;46.07;28.97;;;3.00;67.60;;;;;;5014686;28;20582;-81
2022/03/20 02:19:15;;;;;;;26.30;18.33;;;3.00;72.00;;;;;;5009400;28;20230;-81
2022/03/20 02:21:46;;;;;;;34.30;22.53;;;2.80;67.40;;;;;;5010077;28;20234;-81
2022/03/20 02:24:33;;;;;;;34.67;22.57;;;2.50;67.10;;;;;;5009554;28;20192;-81
2022/03/20 02:27:11;;;;;;;27.70;19.23;;;2.50;68.70;;;;;;4999600;28;20215;-82
2022/03/20 02:29:39;;;;;;;34.10;22.37;;;2.50;68.60;;;;;;5010870;28;20207;-81
2022/03/20 02:32:08;;;;;;;29.20;19.63;;;2.40;70.40;;;;;;5010834;28;20227;-82
2022/03/20 02:34:36;;;;;;;32.53;22.30;;;2.40;69.20;;;;;;5016584;28;20204;-82
2022/03/20 02:37:05;;;;;;;33.07;22.23;;;2.30;73.00;;;;;;5009666;28;20588;-82
2022/03/20 02:39:33;;;;;;;37.37;25.07;;;2.40;73.30;;;;;;5012061;28;20219;-82
2022/03/20 02:42:03;;;;;;;35.17;21.70;;;2.40;75.40;;;;;;5015055;28;20229;-82
2022/03/20 02:45:05;;;;;;;30.33;19.77;;;2.40;72.50;;;;;;5018568;28;20650;-82
2022/03/20 02:47:35;;;;;;;31.87;21.00;;;2.40;74.10;;;;;;4949601;29;20704;-81
2022/03/20 02:50:05;;;;;;;32.53;21.20;;;2.40;71.60;;;;;;4948049;29;20211;-81
2022/03/20 02:52:45;;;;;;;33.10;22.03;;;2.30;71.90;;;;;;4981599;28;20286;-82
2022/03/20 02:55:13;;;;;;;34.73;22.37;;;2.40;74.00;;;;;;5010620;28;20202;-81
2022/03/20 02:57:40;;;;;;;32.20;19.77;;;2.50;75.90;;;;;;5009702;28;20238;-81
2022/03/20 03:00:08;;;;;;;30.13;20.60;;;2.60;72.70;;;;;;5007613;28;20242;-81
2022/03/20 03:02:36;;;;;;;35.73;24.20;;;2.60;71.70;;;;;;5011996;28;20299;-81
2022/03/20 03:05:04;;;;;;;34.50;21.87;;;2.50;75.10;;;;;;5016935;28;20203;-81
2022/03/20 03:10:55;;;;;;;32.10;20.87;;;2.60;74.00;;;;;;5014682;28;20238;-81
2022/03/20 03:13:05;;;;;;;34.20;22.93;;;2.60;75.50;;;;;;5004283;28;20283;-82
2022/03/20 03:15:31;;;;;;;30.37;18.60;;;2.70;77.20;;;;;;5029986;28;20263;-82
2022/03/20 03:17:59;;;;;;;30.37;20.57;;;2.60;70.00;;;;;;5016078;28;20227;-81
2022/03/20 03:20:26;;;;;;;25.67;18.47;;;2.60;74.90;;;;;;5018365;28;20646;-82
2022/03/20 03:22:53;;;;;;;35.47;23.10;;;2.60;73.20;;;;;;5010955;28;20226;-81
2022/03/20 03:25:22;;;;;;;30.63;22.10;;;2.60;77.60;;;;;;5015101;28;20559;-81
2022/03/20 03:27:49;;;;;;;28.73;20.60;;;2.70;77.60;;;;;;5005964;28;20724;-82
2022/03/20 03:30:16;;;;;;;28.47;18.73;;;2.80;72.30;;;;;;5004366;28;20216;-82
2022/03/20 03:32:43;;;;;;;28.13;20.07;;;2.60;72.60;;;;;;5016340;28;20233;-81
2022/03/20 03:37:56;;;;;;;26.87;18.53;;;2.50;74.10;;;;;;5015145;28;20229;-81
2022/03/20 03:40:24;;;;;;;30.87;17.93;;;2.20;71.20;;;;;;5018005;28;20229;-81
2022/03/20 03:42:51;;;;;;;26.77;18.60;;;2.00;72.30;;;;;;5020520;28;20313;-81
2022/03/20 03:45:18;;;;;;;27.23;18.40;;;1.90;75.00;;;;;;5017244;28;20263;-81
2022/03/20 03:47:45;;;;;;;28.87;18.77;;;1.70;74.40;;;;;;5019146;28;20583;-82
2022/03/20 03:50:12;;;;;;;27.10;18.00;;;1.70;77.40;;;;;;5023055;28;20630;-81
2022/03/20 03:52:39;;;;;;;29.43;20.07;;;1.80;77.40;;;;;;5020299;28;20723;-81
2022/03/20 03:55:08;;;;;;;31.20;21.90;;;2.00;79.10;;;;;;5022288;28;20202;-81
2022/03/20 03:57:36;;;;;;;26.97;18.43;;;2.20;81.30;;;;;;5023349;28;20298;-81
2022/03/20 04:00:04;;;;;;;28.27;19.37;;;2.20;77.00;;;;;;5018689;28;20224;-80
2022/03/20 04:02:31;;;;;;;30.30;18.77;;;2.20;77.20;;;;;;5023014;28;20227;-81
2022/03/20 04:04:58;;;;;;;29.63;20.77;;;2.20;78.40;;;;;;5020581;28;20546;-81
2022/03/20 04:07:26;;;;;;;30.97;19.40;;;2.30;81.10;;;;;;5018032;28;20296;-80
2022/03/20 04:09:53;;;;;;;27.37;19.73;;;2.30;78.80;;;;;;5024615;28;20826;-81
2022/03/20 04:12:20;;;;;;;26.80;18.90;;;2.30;78.10;;;;;;5011657;28;20258;-81
2022/03/20 04:14:49;;;;;;;30.13;19.30;;;2.20;76.30;;;;;;5018814;28;20203;-80
2022/03/20 04:17:16;;;;;;;32.00;20.17;;;2.00;76.20;;;;;;5022077;28;20247;-81
2022/03/20 04:19:46;;;;;;;29.37;18.43;;;2.00;80.70;;;;;;5023406;28;20227;-81
2022/03/20 04:22:15;;;;;;;25.13;18.27;;;2.00;77.80;;;;;;5019380;28;20303;-82
2022/03/20 04:24:42;;;;;;;29.50;17.73;;;1.80;75.50;;;;;;5020063;28;20203;-81
2022/03/20 04:27:11;;;;;;;29.03;19.30;;;1.60;75.80;;;;;;5017128;28;20295;-80
2022/03/20 04:29:38;;;;;;;29.50;19.60;;;1.50;79.50;;;;;;5025231;28;20207;-81
2022/03/20 04:32:09;;;;;;;28.50;18.13;;;1.50;80.00;;;;;;5016408;28;20285;-81
2022/03/20 04:34:37;;;;;;;27.37;18.90;;;1.60;79.50;;;;;;5021885;28;20310;-81
2022/03/20 04:37:05;;;;;;;27.23;17.43;;;1.70;80.70;;;;;;5020062;28;20734;-81
2022/03/20 04:39:33;;;;;;;28.67;19.33;;;1.60;77.70;;;;;;5023348;28;20223;-81
2022/03/20 04:42:00;;;;;;;29.50;18.97;;;1.50;80.30;;;;;;5019132;28;20237;-81
2022/03/20 04:44:27;;;;;;;25.07;17.83;;;1.80;82.90;;;;;;5021525;28;20275;-81
2022/03/20 04:46:55;;;;;;;30.93;19.67;;;2.00;79.50;;;;;;5018904;28;20250;-80
2022/03/20 05:00:20;;;;;;;27.23;18.53;;;2.20;78.70;;;;;;5017321;28;20717;-81
2022/03/20 05:02:50;;;;;;;27.53;18.33;;;2.20;79.30;;;;;;5029875;28;20250;-81
2022/03/20 05:05:19;;;;;;;26.23;18.30;;;2.20;78.70;;;;;;5018223;28;20274;-81
2022/03/20 05:07:45;;;;;;;26.57;18.47;;;2.20;79.50;;;;;;5021655;28;20223;-81
2022/03/20 05:15:42;;;;;;;27.97;18.10;;;2.30;80.40;;;;;;5018429;28;20209;-81
2022/03/20 05:18:09;;;;;;;28.50;17.80;;;2.10;76.30;;;;;;5019983;28;20262;-81
2022/03/20 05:20:37;;;;;;;27.30;17.87;;;2.00;77.20;;;;;;5016983;28;20233;-82
2022/03/20 05:23:11;;;;;;;27.43;17.73;;;1.80;77.50;;;;;;5016323;28;20261;-81
2022/03/20 05:25:40;;;;;;;28.20;18.37;;;1.80;80.40;;;;;;5023092;28;20199;-81
2022/03/20 05:28:07;;;;;;;26.80;18.17;;;1.90;81.10;;;;;;5017966;28;20243;-81
2022/03/20 05:30:34;;;;;;;23.63;17.13;;;1.90;78.40;;;;;;5022188;28;20271;-81
2022/03/20 05:33:01;;;;;;;26.80;18.53;;;1.70;76.40;;;;;;5016008;28;20571;-81
2022/03/20 05:35:29;;;;;;;28.53;19.77;;;1.60;78.90;;;;;;5016388;28;20258;-81
2022/03/20 05:37:57;;;;;;;27.67;19.23;;;1.80;85.00;;;;;;5011412;28;20222;-81
2022/03/20 05:40:24;;;;;;;28.13;18.50;;;2.10;81.90;;;;;;5009588;28;20233;-81
2022/03/20 05:42:51;;;;;;;26.87;18.67;;;2.20;80.00;;;;;;5015114;28;20261;-81
2022/03/20 05:45:19;;;;;;;27.63;18.17;;;2.20;80.70;;;;;;5029778;28;20217;-80
2022/03/20 05:47:45;;;;;;;27.20;18.83;;;2.30;79.30;;;;;;5022267;28;20279;-80
2022/03/20 05:50:13;;;;;;;25.63;16.90;;;2.40;79.60;;;;;;5011024;28;20230;-81
2022/03/20 05:52:40;;;;;;;26.37;17.77;;;2.50;76.70;;;;;;5016835;28;20294;-81
2022/03/20 05:55:11;;;;;;;25.70;16.70;;;2.30;75.70;;;;;;5021883;28;20207;-81
2022/03/20 06:00:25;;;;;;;27.33;17.97;;;2.20;79.00;;;;;;5021633;28;20268;-81
2022/03/20 06:02:53;;;;;;;27.10;17.70;;;2.20;78.10;;;;;;5008313;28;20225;-81
2022/03/20 06:05:21;;;;;;;24.83;17.77;;;2.20;77.70;;;;;;5020796;28;20209;-80
2022/03/20 06:07:51;;;;;;;30.10;18.83;;;2.40;80.60;;;;;;5023067;28;20225;-81
2022/03/20 06:10:21;;;;;;;25.27;17.90;;;2.60;80.40;;;;;;5019120;28;20287;-81
2022/03/20 06:12:48;;;;;;;27.23;17.73;;;2.80;79.10;;;;;;5022998;28;20227;-79
2022/03/20 06:15:16;;;;;;;28.00;18.23;;;2.90;77.20;;;;;;5015519;28;20299;-80
2022/03/20 06:17:45;;;;;;;26.67;18.37;;;2.90;77.50;;;;;;5021561;28;20231;-82
2022/03/20 06:20:16;;;;;;;27.83;19.03;;;2.90;77.50;;;;;;5012443;28;20232;-81
2022/03/20 06:22:44;;;;;;;27.10;17.93;;;3.10;78.40;;;;;;5023954;28;20231;-81
2022/03/20 06:25:15;;;;;;;25.80;17.50;;;3.10;76.40;;;;;;5018652;28;20227;-81
2022/03/20 06:27:45;;;;;;;26.20;18.30;;;3.10;75.50;;;;;;5020763;28;20257;-81
2022/03/20 06:30:14;;;;;;;27.60;20.17;;;3.20;77.00;;;;;;5018435;28;20199;-81
2022/03/20 06:32:41;;;;;;;24.77;17.53;;;3.20;75.00;;;;;;5025176;28;20306;-81
2022/03/20 06:35:08;;;;;;;27.53;17.63;;;3.30;68.80;;;;;;5019625;28;20204;-82
2022/03/20 06:37:37;;;;;;;24.00;17.60;;;3.20;64.90;;;;;;5019908;28;20297;-81
2022/03/20 06:40:04;;;;;;;25.03;17.07;;;3.40;68.10;;;;;;5018951;28;20220;-81
2022/03/20 06:42:31;;;;;;;25.33;18.07;;;3.40;69.50;;;;;;5020996;28;20309;-82
2022/03/20 06:45:03;;;;;;;24.40;17.57;;;3.40;62.70;;;;;;5019005;28;20202;-81
2022/03/20 06:47:32;;;;;;;26.83;18.37;;;3.40;59.10;;;;;;5018534;28;20281;-81
2022/03/20 06:49:59;;;;;;;26.70;18.27;;;3.60;57.60;;;;;;5020907;28;21753;-81
2022/03/20 06:52:28;;;;;;;22.27;17.40;;;3.90;57.00;;;;;;5021787;28;20223;-82
2022/03/20 06:54:57;;;;;;;25.80;17.70;;;4.10;54.30;;;;;;5009566;28;20705;-78
2022/03/20 06:57:24;;;;;;;24.33;17.83;;;4.50;51.10;;;;;;5010936;28;20223;-81
2022/03/20 06:59:51;;;;;;;22.63;17.30;;;4.40;49.40;;;;;;5000715;28;20600;-79
2022/03/20 07:02:19;;;;;;;23.57;16.73;;;5.10;46.70;;;;;;5004953;28;20658;-81
2022/03/20 07:04:47;;;;;;;24.60;17.40;;;5.50;44.70;;;;;;5010724;28;20198;-81
2022/03/20 07:07:15;;;;;;;23.53;17.40;;;6.00;41.00;;;;;;5012322;28;20238;-81
2022/03/20 07:09:42;;;;;;;23.67;17.87;;;7.00;38.00;;;;;;5015117;28;20577;-81
2022/03/20 07:12:11;;;;;;;23.50;17.63;;;7.30;33.70;;;;;;5011255;28;20575;-82
2022/03/20 07:14:38;;;;;;;22.65;17.38;;;6.90;35.00;;;;;;5011522;28;20211;-81
2022/03/20 07:17:08;;;;;;;24.37;17.93;;;6.70;37.70;;;;;;5018155;28;20322;-81
2022/03/20 07:19:44;;;;;;;23.50;17.60;;;6.50;35.80;;;;;;5011551;28;20207;-83
2022/03/20 07:22:12;;;;;;;24.97;17.47;;;6.50;36.10;;;;;;5012789;28;20235;-82
2022/03/20 07:24:41;;;;;;;23.43;17.87;;;6.50;36.70;;;;;;5002698;28;20307;-81
2022/03/20 07:29:52;;;;;;;23.20;18.07;;;6.30;36.90;;;;;;5011087;28;20227;-79
2022/03/20 07:32:19;;;;;;;24.40;17.83;;;5.80;37.00;;;;;;5005758;28;20219;-81
2022/03/20 07:34:49;;;;;;;26.63;17.80;;;5.70;39.70;;;;;;5000967;28;20211;-89
2022/03/20 07:37:20;;;;;;;23.20;17.17;;;5.30;40.30;;;;;;4995816;28;20239;-89
2022/03/20 07:39:50;;;;;;;24.23;17.73;;;5.70;42.00;;;;;;5006704;28;20191;-90
2022/03/20 07:42:19;;;;;;;23.73;17.93;;;5.90;40.00;;;;;;5011660;28;20311;-86
2022/03/20 07:44:48;;;;;;;21.10;16.27;;;6.20;38.30;;;;;;5017927;28;20260;-89
2022/03/20 07:47:22;;;;;;;22.17;17.20;;;6.50;36.60;;;;;;5020438;28;20221;-89
2022/03/20 07:55:56;;;;;;;25.60;16.70;;;7.70;32.20;;;;;;4960145;28;20230;-90
2022/03/20 07:58:24;;;;;;;23.35;17.98;;;7.90;31.80;;;;;;5028664;28;20195;-89
2022/03/20 08:03:48;;;;;;;24.17;18.27;;;8.00;31.40;;;;;;5013604;28;20747;-92
2022/03/20 08:23:26;;;;;;;22.30;18.30;;;10.10;23.70;;;;;;4840498;29;20216;-87
2022/03/20 08:35:14;;;;;;;23.08;17.85;;;8.70;29.60;;;;;;4924359;29;20237;-89
2022/03/20 08:41:01;;;;;;;24.48;18.05;;;9.20;28.00;;;;;;4950271;28;20238;-92
2022/03/20 08:53:01;;;;;;;20.98;16.48;;;11.40;23.40;;;;;;5025920;28;20269;-87
2022/03/20 09:25:52;;;;;;;19.63;16.85;;;16.20;14.40;;;;;;4819271;29;20310;-89
2022/03/20 09:28:21;;;;;;;18.20;16.27;;;16.80;13.30;;;;;;4919868;29;20294;-89
2022/03/20 09:30:48;;;;;;;18.55;16.63;;;16.70;13.60;;;;;;4984276;28;20200;-87
2022/03/20 09:33:15;;;;;;;19.48;17.38;;;18.90;11.60;;;;;;5002992;28;20233;-87
2022/03/20 09:35:43;;;;;;;18.13;16.23;;;19.00;10.30;;;;;;5016461;28;20211;-85
2022/03/20 09:38:11;;;;;;;18.80;16.98;;;19.20;10.50;;;;;;5003548;28;20297;-85
2022/03/20 09:40:40;;;;;;;19.65;17.65;;;19.30;10.50;;;;;;5021876;28;20776;-85
2022/03/20 09:43:07;;;;;;;19.50;17.63;;;19.80;10.20;;;;;;5011636;28;20222;-83
2022/03/20 09:45:35;;;;;;;20.10;18.20;;;20.70;8.00;;;;;;5001743;28;20227;-83
2022/03/20 09:48:02;;;;;;;18.40;16.52;;;21.10;7.90;;;;;;5007701;28;20222;-84
2022/03/20 09:50:30;;;;;;;17.83;16.15;;;21.00;7.70;;;;;;5017931;28;20282;-84
2022/03/20 09:52:57;;;;;;;18.60;16.77;;;22.40;6.90;;;;;;5022515;28;20229;-83
2022/03/20 09:55:27;;;;;;;19.17;16.90;;;22.30;6.20;;;;;;5012943;28;20213;-84
2022/03/20 09:57:57;;;;;;;18.73;16.83;;;22.70;6.40;;;;;;5018353;28;20218;-84
2022/03/20 10:00:25;;;;;;;18.60;16.92;;;22.90;5.80;;;;;;5014623;28;20199;-84
2022/03/20 10:02:52;;;;;;;17.80;16.13;;;22.90;5.50;;;;;;5014999;28;20218;-84
2022/03/20 10:05:22;;;;;;;20.48;18.50;;;22.30;6.50;;;;;;5015189;28;20195;-84
2022/03/20 10:07:49;;;;;;;17.52;16.02;;;22.60;6.60;;;;;;5017724;28;20241;-84
2022/03/20 10:10:18;;;;;;;16.88;15.27;;;22.70;5.10;;;;;;5018410;28;20195;-84
2022/03/20 10:12:51;;;;;;;17.45;15.77;;;23.00;4.90;;;;;;5011799;28;20626;-84
2022/03/20 10:15:32;;;;;;;17.58;15.98;;;22.60;5.30;;;;;;5012765;28;20203;-84
2022/03/20 10:18:14;;;;;;;17.98;16.15;;;22.30;5.00;;;;;;5010402;28;20229;-84
2022/03/20 10:20:44;;;;;;;16.95;15.38;;;22.50;5.00;;;;;;5003266;28;20195;-84
2022/03/20 10:23:32;;;;;;;16.58;15.02;;;21.90;6.10;;;;;;5018141;28;20223;-84
2022/03/20 10:26:00;;;;;;;16.27;14.77;;;21.70;5.70;;;;;;5011775;28;20204;-84
2022/03/20 10:28:36;;;;;;;16.35;14.75;;;21.60;5.70;;;;;;5009354;28;20219;-85
2022/03/20 10:31:06;;;;;;;15.95;14.35;;;21.60;6.30;;;;;;5016318;28;20203;-84
2022/03/20 10:33:38;;;;;;;15.93;14.38;;;21.60;5.30;;;;;;5010202;28;20281;-85
2022/03/20 10:36:13;;;;;;;15.38;13.88;;;21.80;5.10;;;;;;5013999;28;20498;-85
2022/03/20 10:38:42;;;;;;;15.63;13.77;;;21.90;4.70;;;;;;5012884;28;20265;-84
2022/03/20 10:41:20;;;;;;;16.75;15.15;;;20.70;6.10;;;;;;5017553;28;20286;-84
2022/03/20 10:43:48;;;;;;;15.48;13.98;;;20.20;5.80;;;;;;5025475;28;20294;-87
2022/03/20 10:46:21;;;;;;;18.35;14.98;;;19.80;7.80;;;;;;5016049;28;20227;-87
2022/03/20 10:48:49;;;;;;;15.63;14.13;;;20.50;7.00;;;;;;5014339;28;20221;-84
2022/03/20 10:51:37;;;;;;;16.75;15.05;;;21.40;6.30;;;;;;5018611;28;20226;-85
2022/03/20 10:54:06;;;;;;;16.58;14.98;;;21.30;6.30;;;;;;5018815;28;20580;-86
2022/03/20 10:56:33;;;;;;;16.77;15.07;;;20.40;6.90;;;;;;5021986;28;20237;-87
2022/03/20 10:59:12;;;;;;;16.40;14.80;;;20.60;6.70;;;;;;5030180;28;20228;-85
2022/03/20 11:01:40;;;;;;;16.50;14.93;;;20.50;7.60;;;;;;5025764;28;20230;-90
2022/03/20 11:04:09;;;;;;;17.08;15.40;;;18.60;8.90;;;;;;5008604;28;20627;-89
2022/03/20 11:06:36;;;;;;;15.45;13.95;;;18.70;9.70;;;;;;5030525;28;20226;-86
2022/03/20 11:09:04;;;;;;;15.20;13.73;;;19.50;7.80;;;;;;5027127;28;20226;-86
2022/03/20 11:11:37;;;;;;;15.80;14.27;;;19.90;7.40;;;;;;5024338;28;20227;-88
2022/03/20 11:14:06;;;;;;;16.27;14.73;;;19.40;7.20;;;;;;5018369;28;20214;-91
2022/03/20 11:16:38;;;;;;;16.90;14.38;;;17.90;9.70;;;;;;5013024;28;20230;-89
2022/03/20 11:28:04;;;;;;;14.90;13.35;;;15.60;12.10;;;;;;5002948;28;20267;-90
2022/03/20 11:33:38;;;;;;;19.10;13.70;;;15.40;12.30;;;;;;5026665;28;20227;-91
2022/03/20 11:42:34;;;;;;;16.17;13.88;;;15.60;12.10;;;;;;5017766;28;20237;-90
2022/03/20 11:48:17;;;;;;;16.13;13.77;;;15.30;12.60;;;;;;5006799;28;20816;-90
2022/03/20 11:50:45;;;;;;;14.15;12.30;;;14.50;13.60;;;;;;5013025;28;20299;-89
2022/03/20 11:53:13;;;;;;;15.55;12.95;;;14.40;13.70;;;;;;5016941;28;20882;-89
2022/03/20 11:55:42;;;;;;;16.30;13.65;;;14.80;13.60;;;;;;5021257;28;20274;-89
2022/03/20 11:58:33;;;;;;;15.48;12.93;;;14.80;13.40;;;;;;5019497;28;20644;-89
2022/03/20 12:03:53;;;;;;;17.98;13.48;;;15.10;13.00;;;;;;5022079;28;20196;-89
2022/03/20 12:06:58;;;;;;;15.52;12.95;;;15.10;13.50;;;;;;5026498;28;20243;-89
2022/03/20 12:10:03;;;;;;;15.05;12.98;;;15.10;13.20;;;;;;5022540;28;20435;-89
2022/03/20 12:12:44;;;;;;;17.05;13.63;;;15.20;13.00;;;;;;5020795;28;20235;-89
2022/03/20 12:15:16;;;;;;;16.05;12.20;;;14.70;14.00;;;;;;5021679;28;20213;-89
2022/03/20 12:18:11;;;;;;;15.45;12.48;;;14.50;14.00;;;;;;5023105;28;20219;-88
2022/03/20 12:32:13;;;;;;;15.63;12.57;;;14.90;12.20;;;;;;5022382;28;20219;-89
2022/03/20 12:34:42;;;;;;;13.88;11.85;;;14.60;13.10;;;;;;5024290;28;20213;-88
2022/03/20 12:37:37;;;;;;;15.88;12.10;;;14.40;13.40;;;;;;5022087;28;20246;-89
2022/03/20 12:40:16;;;;;;;13.68;11.23;;;14.50;12.70;;;;;;5015100;28;20703;-88
2022/03/20 12:48:31;;;;;;;13.48;11.60;;;14.80;12.70;;;;;;5009255;28;20678;-88
2022/03/20 12:56:32;;;;;;;12.38;11.05;;;14.70;12.70;;;;;;5020468;28;20230;-88
2022/03/20 13:04:38;;;;;;;14.88;11.55;;;14.60;12.60;;;;;;5025871;28;20194;-88
2022/03/20 13:13:09;;;;;;;14.00;11.70;;;14.70;14.10;;;;;;5027165;28;20195;-88
2022/03/20 13:46:39;;;;;;;12.93;11.27;;;14.80;13.10;;;;;;5005226;28;20238;-89
2022/03/20 13:49:14;;;;;;;13.30;11.10;;;14.70;12.90;;;;;;5019808;28;20234;-88
2022/03/20 13:51:59;;;;;;;13.77;11.70;;;14.60;13.30;;;;;;5027657;28;20234;-89
2022/03/20 14:03:59;;;;;;;16.80;12.25;;;14.60;13.70;;;;;;5017996;28;20219;-88
2022/03/20 14:12:29;;;;;;;15.18;11.68;;;14.40;14.00;;;;;;5008946;28;20271;-88
2022/03/20 14:21:10;;;;;;;12.73;11.35;;;14.50;13.90;;;;;;5014762;28;20238;-88
2022/03/20 14:23:53;;;;;;;13.52;11.98;;;14.30;14.10;;;;;;5019566;28;20301;-89
2022/03/20 14:26:21;;;;;;;14.95;11.45;;;14.30;14.10;;;;;;5024755;28;20697;-90
2022/03/20 14:43:12;;;;;;;15.50;11.70;;;14.10;14.70;;;;;;5025676;28;20574;-89
2022/03/20 14:45:59;;;;;;;15.10;11.80;;;14.10;14.60;;;;;;5024278;28;20241;-89
2022/03/20 14:51:12;;;;;;;15.65;11.38;;;14.20;14.70;;;;;;5029204;28;20207;-88
2022/03/20 14:57:04;;;;;;;16.73;11.48;;;14.20;14.40;;;;;;5018900;28;20234;-89
2022/03/20 14:59:33;;;;;;;13.60;11.45;;;14.10;14.20;;;;;;5019828;28;20266;-88
2022/03/20 15:02:00;;;;;;;13.30;11.63;;;14.10;14.20;;;;;;5017186;28;20594;-89
2022/03/20 15:04:41;;;;;;;14.45;11.32;;;14.00;14.20;;;;;;5022078;28;20985;-88
2022/03/20 15:07:08;;;;;;;13.63;11.48;;;13.90;14.50;;;;;;5016914;28;20262;-88
2022/03/20 15:12:30;;;;;;;14.75;11.38;;;14.00;14.30;;;;;;5020772;28;20237;-88
2022/03/20 15:15:00;;;;;;;14.30;10.98;;;14.00;14.40;;;;;;5023336;28;20211;-89
2022/03/20 15:17:30;;;;;;;13.68;10.63;;;13.90;14.70;;;;;;5024045;28;20310;-91
2022/03/20 15:20:23;;;;;;;14.18;11.07;;;13.90;14.40;;;;;;5028273;28;20198;-89
2022/03/20 15:22:51;;;;;;;14.43;10.90;;;14.00;14.50;;;;;;5013683;28;20239;-88
2022/03/20 15:25:19;;;;;;;13.07;11.13;;;14.00;14.30;;;;;;5016981;28;20267;-88
2022/03/20 15:27:46;;;;;;;12.35;11.05;;;13.90;14.40;;;;;;5018284;28;20229;-89
2022/03/20 15:30:16;;;;;;;14.55;11.15;;;13.90;14.30;;;;;;5014799;28;20689;-89
2022/03/20 15:32:54;;;;;;;13.90;10.75;;;13.80;14.50;;;;;;5021557;28;20253;-89
2022/03/20 15:38:04;;;;;;;14.63;11.35;;;13.80;15.00;;;;;;5008994;28;20215;-88
2022/03/20 15:40:37;;;;;;;13.02;10.55;;;13.50;15.70;;;;;;5018151;28;20204;-89
2022/03/20 15:43:08;;;;;;;14.70;11.35;;;13.60;15.10;;;;;;5011368;28;20314;-88
2022/03/20 15:45:36;;;;;;;15.15;11.45;;;13.70;15.30;;;;;;5019972;28;20212;-88
2022/03/20 15:48:11;;;;;;;14.15;11.50;;;13.70;15.10;;;;;;5020936;28;20207;-88
2022/03/20 15:50:51;;;;;;;14.27;12.15;;;13.70;15.00;;;;;;5022922;28;20209;-89
2022/03/20 15:53:18;;;;;;;12.95;10.90;;;13.60;15.40;;;;;;5017113;28;21020;-88
2022/03/20 15:55:46;;;;;;;14.45;11.02;;;13.50;15.10;;;;;;5017587;28;20204;-88
2022/03/20 15:58:14;;;;;;;12.25;10.48;;;13.60;15.00;;;;;;5001179;28;20227;-90
2022/03/20 16:00:42;;;;;;;14.35;11.15;;;13.50;14.90;;;;;;5026125;28;20211;-88
2022/03/20 16:03:10;;;;;;;14.85;11.45;;;13.50;15.10;;;;;;5027176;28;20281;-88
2022/03/20 16:05:38;;;;;;;13.05;11.02;;;13.50;15.00;;;;;;5018333;28;20204;-88
2022/03/20 16:08:18;;;;;;;14.02;11.05;;;13.50;15.00;;;;;;5009456;28;20231;-89
2022/03/20 16:10:47;;;;;;;13.57;11.52;;;13.50;15.10;;;;;;5020080;28;20203;-90
2022/03/20 16:13:45;;;;;;;14.80;11.45;;;13.40;15.10;;;;;;5016783;28;20218;-89
2022/03/20 16:19:05;;;;;;;13.00;10.95;;;13.40;15.00;;;;;;5010623;28;20213;-91
2022/03/20 16:21:41;;;;;;;13.52;10.65;;;13.40;14.90;;;;;;5018866;28;20233;-90
2022/03/20 16:29:50;;;;;;;14.13;10.73;;;13.40;14.90;;;;;;5027214;28;20226;-89
2022/03/20 16:32:19;;;;;;;12.48;11.10;;;13.20;15.10;;;;;;5010682;28;20228;-89
2022/03/20 16:34:48;;;;;;;15.93;10.85;;;13.20;15.30;;;;;;5020328;28;20223;-92
2022/03/20 16:37:35;;;;;;;14.57;10.32;;;12.90;15.50;;;;;;4998194;28;20223;-89
2022/03/20 16:48:52;;;;;;;13.07;10.40;;;12.60;15.80;;;;;;5011746;28;20253;-88
2022/03/20 16:51:22;;;;;;;12.57;10.80;;;12.40;16.20;;;;;;4998488;28;20242;-89
2022/03/20 16:53:56;;;;;;;13.25;10.50;;;12.30;16.30;;;;;;5017235;28;20196;-88
2022/03/20 16:59:07;;;;;;;12.32;10.63;;;12.20;16.40;;;;;;5004781;28;20279;-90
2022/03/20 17:01:34;;;;;;;14.38;10.55;;;12.10;16.60;;;;;;5016035;28;20302;-89
2022/03/20 17:04:04;;;;;;;12.70;10.15;;;11.90;16.80;;;;;;5029459;28;20263;-92
2022/03/20 17:06:31;;;;;;;13.00;10.05;;;11.80;17.20;;;;;;5019436;28;20227;-91
2022/03/20 17:19:54;;;;;;;13.18;10.80;;;11.60;17.80;;;;;;5024247;28;20211;-94
2022/03/20 17:34:11;;;;;;;14.40;10.48;;;11.00;19.00;;;;;;4987390;28;20215;-89